Time;durP1;ratioP1;P1;durP2;ratioP2;P2;SDS_P1;SDS_P2;PMS_P1;PMS_P2;Temp;Humidity;BMP_temperature;BMP_pressure;BME280_temperature;BME280_humidity;BME280_pressure;Samples;Min_cycle;Max_cycle;Signal;HPM_P1;HPM_P2
2022/06/24 00:03:16;;;;;;;3.05;2.75;;;;;;;22.79;38.70;99545.19;10135916;29;20134;-76
2022/06/24 00:08:19;;;;;;;3.65;2.85;;;;;;;22.81;38.39;99544.94;10134659;29;20119;-77
2022/06/24 00:13:23;;;;;;;3.83;2.72;;;;;;;22.74;38.74;99539.53;10133689;29;20770;-77
2022/06/24 00:18:26;;;;;;;3.00;2.70;;;;;;;22.65;38.07;99538.13;10132068;29;20417;-77
2022/06/24 00:23:29;;;;;;;3.05;2.53;;;;;;;22.64;38.68;99528.25;10134609;29;20075;-77
2022/06/24 00:28:33;;;;;;;2.80;2.60;;;;;;;22.57;38.43;99527.47;10110666;29;21222;-77
2022/06/24 00:33:37;;;;;;;2.85;2.65;;;;;;;22.52;38.46;99517.22;10118976;29;20091;-77
2022/06/24 00:38:40;;;;;;;5.32;2.85;;;;;;;22.47;38.60;99506.09;10134772;29;20093;-78
2022/06/24 00:43:54;;;;;;;3.22;2.60;;;;;;;22.50;38.88;99506.47;10116331;29;20048;-78
2022/06/24 00:48:58;;;;;;;3.50;2.63;;;;;;;22.41;38.83;99506.97;10132273;29;20044;-76
2022/06/24 00:54:09;;;;;;;3.70;2.50;;;;;;;22.30;39.13;99503.88;10134011;29;20064;-77
2022/06/24 00:59:13;;;;;;;7.57;2.80;;;;;;;22.25;39.35;99494.69;10133224;29;20131;-78
2022/06/24 01:04:16;;;;;;;3.47;2.95;;;;;;;22.33;39.13;99481.56;10126253;29;20044;-79
2022/06/24 01:09:20;;;;;;;2.75;2.55;;;;;;;22.22;39.03;99482.28;10134494;29;20454;-77
2022/06/24 01:14:24;;;;;;;4.47;3.00;;;;;;;22.30;39.02;99479.28;10138991;29;21215;-77
2022/06/24 01:19:28;;;;;;;3.35;2.88;;;;;;;22.30;39.10;99464.75;10140070;29;20056;-78
2022/06/24 01:24:32;;;;;;;3.28;2.97;;;;;;;22.20;38.81;99458.94;10141333;29;20514;-79
2022/06/24 01:29:35;;;;;;;5.88;3.05;;;;;;;22.19;38.99;99455.38;10139259;29;20073;-78
2022/06/24 01:34:38;;;;;;;3.42;2.83;;;;;;;22.19;39.08;99449.06;10128685;29;20067;-78
2022/06/24 01:39:42;;;;;;;3.63;2.90;;;;;;;22.11;39.63;99444.72;10143310;29;20154;-78
2022/06/24 01:44:46;;;;;;;6.32;3.00;;;;;;;22.17;38.99;99443.00;10140181;29;21526;-78
2022/06/24 01:49:48;;;;;;;3.50;3.20;;;;;;;22.13;39.18;99430.81;10137608;29;20056;-77
2022/06/24 01:54:53;;;;;;;5.50;3.05;;;;;;;22.09;39.38;99422.22;10138641;29;20075;-78
2022/06/24 01:59:58;;;;;;;2.65;2.45;;;;;;;22.08;39.37;99424.13;10121513;29;20074;-77
2022/06/24 02:05:01;;;;;;;4.90;2.67;;;;;;;21.95;39.39;99416.03;10139206;29;20553;-76
2022/06/24 02:15:28;;;;;;;3.38;3.05;;;;;;;21.80;39.13;99397.22;10119823;29;20055;-77
2022/06/24 02:20:31;;;;;;;3.60;3.13;;;;;;;21.77;39.52;99383.97;10137159;29;21129;-76
2022/06/24 02:25:36;;;;;;;3.65;3.33;;;;;;;21.76;39.63;99386.94;10135511;29;20076;-78
2022/06/24 02:30:39;;;;;;;3.47;3.20;;;;;;;21.77;39.45;99378.50;10120495;29;20183;-78
2022/06/24 02:35:42;;;;;;;3.95;3.47;;;;;;;21.64;45.30;99434.09;10119790;29;20060;-76
2022/06/24 02:40:47;;;;;;;14.45;5.85;;;;;;;17.91;70.60;99404.59;10136889;29;20111;-75
2022/06/24 02:45:52;;;;;;;11.40;6.60;;;;;;;17.20;82.49;99396.38;10119214;29;20395;-76
2022/06/24 02:50:57;;;;;;;15.57;6.90;;;;;;;17.63;84.20;99432.50;10136852;29;20044;-77
2022/06/24 02:56:03;;;;;;;14.30;7.60;;;;;;;17.27;82.38;99475.13;10134368;29;20054;-76
2022/06/24 03:01:07;;;;;;;11.35;7.70;;;;;;;17.47;83.58;99468.91;10136137;29;20146;-77
2022/06/24 03:06:10;;;;;;;13.20;7.97;;;;;;;17.68;81.46;99472.66;10135682;29;20067;-77
2022/06/24 03:11:14;;;;;;;14.75;6.97;;;;;;;17.77;83.08;99468.81;10137298;29;20135;-76
2022/06/24 03:16:17;;;;;;;9.60;7.20;;;;;;;18.03;82.45;99478.28;10132839;29;20193;-77
2022/06/24 03:21:20;;;;;;;10.48;7.00;;;;;;;18.16;79.11;99480.28;10135053;29;20060;-75
2022/06/24 03:26:24;;;;;;;8.38;6.10;;;;;;;18.24;70.72;99489.13;10134320;29;20140;-76
2022/06/24 03:31:27;;;;;;;7.25;6.55;;;;;;;18.43;75.10;99490.34;10136085;29;20055;-76
2022/06/24 03:36:30;;;;;;;7.90;7.00;;;;;;;17.81;80.00;99510.84;10142159;29;20084;-77
2022/06/24 03:41:35;;;;;;;8.18;7.35;;;;;;;17.80;81.84;99500.16;10135052;29;20506;-77
2022/06/24 03:46:38;;;;;;;11.90;7.05;;;;;;;17.94;82.99;99488.41;10128486;29;20465;-76
2022/06/24 03:51:41;;;;;;;9.18;8.00;;;;;;;17.99;82.32;99480.56;10137355;29;20043;-79
2022/06/24 03:56:45;;;;;;;9.68;6.10;;;;;;;17.72;71.70;99473.13;10140422;29;20143;-79
2022/06/24 04:01:48;;;;;;;6.70;6.10;;;;;;;18.19;70.45;99442.66;10139592;29;20056;-79
2022/06/24 04:06:51;;;;;;;11.52;6.53;;;;;;;18.67;72.35;99453.66;10139840;29;20052;-79
2022/06/24 04:11:55;;;;;;;9.00;5.47;;;;;;;18.89;68.45;99469.94;10138417;29;20773;-79
2022/06/24 04:16:58;;;;;;;7.60;5.05;;;;;;;19.20;67.13;99453.16;10120014;29;20048;-77
2022/06/24 04:22:01;;;;;;;7.93;5.18;;;;;;;19.48;68.32;99460.38;10121430;29;20131;-80
2022/06/24 04:27:06;;;;;;;9.35;5.75;;;;;;;19.44;68.76;99463.50;10121970;29;20059;-78
2022/06/24 04:32:09;;;;;;;5.57;4.45;;;;;;;19.19;65.91;99468.63;10157640;29;20056;-77
2022/06/24 04:37:12;;;;;;;9.65;4.95;;;;;;;19.38;66.40;99463.47;10126103;29;20052;-77
2022/06/24 04:42:16;;;;;;;5.75;5.13;;;;;;;19.59;71.27;99463.34;10123038;29;20132;-79
2022/06/24 04:47:19;;;;;;;7.45;5.10;;;;;;;19.83;71.68;99464.66;10145214;29;20059;-79
2022/06/24 04:52:22;;;;;;;8.40;4.68;;;;;;;20.08;71.16;99469.53;10149505;29;20059;-80
2022/06/24 04:57:26;;;;;;;10.25;5.15;;;;;;;20.24;69.47;99465.53;10153628;29;20095;-80
2022/06/24 05:02:29;;;;;;;7.35;4.65;;;;;;;20.43;70.03;99461.13;10149936;29;20051;-80
2022/06/24 05:07:33;;;;;;;8.70;4.65;;;;;;;20.64;69.08;99458.19;10150836;29;20124;-80
2022/06/24 05:12:37;;;;;;;6.75;4.63;;;;;;;20.75;67.67;99459.41;10150955;29;20063;-77
2022/06/24 05:17:40;;;;;;;6.65;4.32;;;;;;;20.88;66.90;99469.47;10148687;29;20059;-80
2022/06/24 05:22:43;;;;;;;7.60;4.15;;;;;;;20.96;65.18;99464.63;10133314;29;20120;-80
2022/06/24 05:27:47;;;;;;;7.22;4.07;;;;;;;21.45;64.59;99468.66;10129125;29;20474;-80
2022/06/24 05:32:50;;;;;;;10.85;4.43;;;;;;;21.70;61.86;99483.47;10149632;29;20051;-79
2022/06/24 05:37:53;;;;;;;6.45;4.07;;;;;;;21.84;61.56;99474.97;10124569;29;20067;-78
2022/06/24 05:42:57;;;;;;;11.80;3.90;;;;;;;21.72;60.77;99475.84;10124408;29;20051;-80
2022/06/24 05:48:00;;;;;;;5.60;3.25;;;;;;;21.75;61.19;99478.19;10140866;29;20052;-79
2022/06/24 05:58:25;;;;;;;11.07;4.00;;;;;;;22.11;60.59;99475.63;10141798;29;21250;-79
2022/06/24 06:03:28;;;;;;;8.05;4.25;;;;;;;21.91;60.58;99479.56;10141504;29;20142;-78
2022/06/24 06:08:31;;;;;;;6.97;4.05;;;;;;;22.22;60.35;99474.06;10142707;29;20052;-76
2022/06/24 06:13:35;;;;;;;8.02;3.72;;;;;;;22.30;58.60;99484.75;10142102;29;20138;-76
2022/06/24 06:18:39;;;;;;;5.03;2.80;;;;;;;21.77;59.48;99504.22;10134842;29;20151;-78
2022/06/24 06:23:41;;;;;;;6.00;2.50;;;;;;;21.53;60.11;99527.69;10146069;29;20088;-78
2022/06/24 06:28:45;;;;;;;3.88;3.03;;;;;;;21.56;60.72;99493.63;10145033;29;20051;-79
2022/06/24 06:33:49;;;;;;;8.60;3.22;;;;;;;22.00;59.23;99470.88;10138720;29;20056;-78
2022/06/24 06:38:51;;;;;;;6.50;3.53;;;;;;;22.71;59.41;99480.63;10139758;29;20183;-76
2022/06/24 06:43:56;;;;;;;5.47;2.85;;;;;;;23.13;58.96;99480.81;10140101;29;21369;-79
2022/06/24 06:49:00;;;;;;;7.38;3.60;;;;;;;22.87;58.07;99492.84;10138466;29;20059;-78
2022/06/24 06:54:03;;;;;;;8.75;3.33;;;;;;;22.44;58.91;99490.13;10137209;29;20063;-77
2022/06/24 06:59:08;;;;;;;11.02;2.83;;;;;;;22.16;60.15;99501.47;10138207;29;20062;-77
2022/06/24 07:04:10;;;;;;;4.57;1.90;;;;;;;21.95;59.43;99506.25;10119697;29;20104;-77
2022/06/24 07:09:13;;;;;;;9.60;3.20;;;;;;;21.84;60.53;99505.03;10136109;29;20135;-77
2022/06/24 07:14:17;;;;;;;4.13;2.00;;;;;;;21.77;60.30;99487.84;10137582;29;20422;-77
2022/06/24 07:19:20;;;;;;;5.22;2.10;;;;;;;21.68;60.54;99494.59;10135891;29;20561;-77
2022/06/24 07:24:23;;;;;;;3.58;1.92;;;;;;;21.61;61.56;99466.44;10119516;29;20429;-76
2022/06/24 07:29:27;;;;;;;3.40;1.90;;;;;;;20.81;67.10;99485.84;10136272;29;20087;-77
2022/06/24 07:34:31;;;;;;;4.57;1.50;;;;;;;19.85;69.02;99467.16;10136025;29;20135;-77
2022/06/24 07:39:34;;;;;;;8.02;1.20;;;;;;;19.77;70.33;99459.19;10134402;29;20103;-77
2022/06/24 07:44:40;;;;;;;5.97;1.30;;;;;;;20.54;67.81;99465.94;10116265;29;20044;-76
2022/06/24 07:49:43;;;;;;;2.13;1.30;;;;;;;20.97;67.54;99476.38;10133142;29;20425;-77
2022/06/24 07:54:45;;;;;;;2.45;1.38;;;;;;;20.93;67.87;99477.88;10130211;29;20227;-77
2022/06/24 07:59:50;;;;;;;2.55;1.30;;;;;;;20.63;67.61;99472.06;10133775;29;20048;-76
2022/06/24 08:04:54;;;;;;;2.70;1.98;;;;;;;20.00;73.77;99467.84;10122168;29;20048;-77
2022/06/24 08:09:57;;;;;;;3.90;1.30;;;;;;;20.04;75.13;99458.19;10136004;29;20426;-78
2022/06/24 08:15:01;;;;;;;4.18;1.77;;;;;;;20.44;73.21;99465.56;10135225;29;20088;-77
2022/06/24 08:20:05;;;;;;;3.25;1.05;;;;;;;20.39;71.69;99463.47;10160414;29;20048;-77
2022/06/24 08:25:09;;;;;;;3.00;1.23;;;;;;;20.72;71.69;99470.75;10153204;29;20115;-76
2022/06/24 08:30:29;;;;;;;5.28;1.50;;;;;;;20.97;68.67;99463.56;10142901;29;20140;-79
2022/06/24 08:35:32;;;;;;;2.72;1.63;;;;;;;21.50;65.50;99461.69;10142257;29;20051;-78
2022/06/24 08:40:34;;;;;;;3.83;1.77;;;;;;;21.51;65.38;99463.38;10144277;29;20700;-77
2022/06/24 08:45:39;;;;;;;4.15;1.80;;;;;;;22.06;64.94;99452.75;10142343;29;20056;-77
2022/06/24 08:50:42;;;;;;;1.75;1.38;;;;;;;22.19;62.70;99455.38;10142621;29;20143;-78
2022/06/24 08:55:48;;;;;;;6.20;1.95;;;;;;;22.57;62.07;99440.72;10141618;29;20135;-76
2022/06/24 09:00:53;;;;;;;4.70;1.80;;;;;;;22.33;61.82;99446.00;10141317;29;20055;-79
2022/06/24 09:05:56;;;;;;;4.78;1.73;;;;;;;22.67;61.04;99441.06;10142252;29;20560;-79
2022/06/24 09:11:10;;;;;;;2.78;1.92;;;;;;;22.35;60.93;99451.22;10141114;29;20048;-78
2022/06/24 09:16:17;;;;;;;7.78;1.98;;;;;;;22.43;60.62;99453.72;10140122;29;20103;-78
2022/06/24 09:21:23;;;;;;;4.53;2.08;;;;;;;22.34;61.33;99452.28;10141252;29;20394;-78
2022/06/24 09:26:32;;;;;;;3.95;1.70;;;;;;;21.79;62.69;99452.09;10144475;29;20047;-78
2022/06/24 09:31:38;;;;;;;5.85;2.20;;;;;;;22.27;61.17;99460.56;10123575;29;20048;-78
2022/06/24 09:36:42;;;;;;;5.00;2.08;;;;;;;22.97;60.13;99460.31;10140288;29;20056;-77
2022/06/24 09:41:47;;;;;;;2.80;1.58;;;;;;;23.77;56.19;99458.50;10141025;29;20055;-79
2022/06/24 09:47:04;;;;;;;4.72;2.58;;;;;;;23.17;57.65;99464.75;10125834;29;20052;-78
2022/06/24 09:52:08;;;;;;;4.88;2.00;;;;;;;22.87;58.86;99460.00;10133879;29;20079;-78
2022/06/24 09:57:12;;;;;;;4.80;2.83;;;;;;;22.64;59.07;99465.31;10123940;29;21191;-79
2022/06/24 10:02:20;;;;;;;3.67;2.38;;;;;;;23.40;57.92;99459.41;10122849;29;20048;-78
2022/06/24 10:07:25;;;;;;;5.82;2.22;;;;;;;24.16;55.02;99458.94;10142393;29;20059;-77
2022/06/24 10:12:39;;;;;;;2.83;1.20;;;;;;;24.26;52.44;99454.56;10143187;29;20054;-77
2022/06/24 10:17:45;;;;;;;5.93;1.40;;;;;;;24.55;52.04;99479.44;10141943;29;20056;-78
2022/06/24 10:22:49;;;;;;;4.53;1.77;;;;;;;24.58;52.83;99483.63;10141589;29;20063;-77
2022/06/24 10:28:06;;;;;;;2.78;1.70;;;;;;;24.79;52.00;99479.41;10140497;29;20048;-77
2022/06/24 10:33:15;;;;;;;4.78;1.48;;;;;;;25.09;51.34;99477.38;10140371;29;20049;-77
2022/06/24 10:38:18;;;;;;;5.18;1.55;;;;;;;25.57;48.82;99473.41;10142131;29;20134;-77
2022/06/24 10:43:34;;;;;;;3.40;1.50;;;;;;;25.58;48.93;99475.06;10140457;29;20059;-77
2022/06/24 10:48:57;;;;;;;3.58;1.40;;;;;;;25.23;49.93;99457.88;10123330;29;20164;-77
2022/06/24 10:54:12;;;;;;;2.88;1.48;;;;;;;26.12;48.28;99449.97;10140763;29;20059;-77
2022/06/24 10:59:17;;;;;;;4.53;1.77;;;;;;;26.90;45.71;99444.56;10140497;29;20048;-77
2022/06/24 11:04:25;;;;;;;3.03;1.58;;;;;;;26.44;46.39;99438.38;10124278;29;20556;-77
2022/06/24 11:09:28;;;;;;;2.55;1.65;;;;;;;26.16;46.31;99431.84;10124314;29;20127;-77
2022/06/24 11:14:31;;;;;;;3.83;1.70;;;;;;;26.78;45.24;99441.09;10140645;29;20127;-77
2022/06/24 11:19:41;;;;;;;4.35;2.03;;;;;;;28.11;43.25;99420.56;10144251;29;20048;-77
2022/06/24 11:24:46;;;;;;;4.05;1.88;;;;;;;29.09;41.25;99420.13;10154197;29;20064;-78
2022/06/24 11:29:52;;;;;;;3.35;1.73;;;;;;;29.19;40.43;99422.94;10142988;29;20048;-77
2022/06/24 11:34:56;;;;;;;5.80;2.10;;;;;;;28.03;41.75;99425.50;10140212;29;20498;-78
2022/06/24 11:39:59;;;;;;;6.22;1.73;;;;;;;26.44;44.30;99414.44;10139865;29;20052;-77
2022/06/24 11:45:01;;;;;;;4.55;1.70;;;;;;;25.83;46.85;99410.66;10137883;29;20107;-77
2022/06/24 11:50:06;;;;;;;3.85;1.50;;;;;;;26.57;45.92;99404.97;10139462;29;20060;-78
2022/06/24 11:55:23;;;;;;;4.32;2.42;;;;;;;27.33;43.40;99398.81;10137107;29;20101;-78
2022/06/24 12:00:29;;;;;;;2.03;1.33;;;;;;;27.08;41.98;99391.91;10137944;29;20135;-77
2022/06/24 12:05:37;;;;;;;5.40;1.77;;;;;;;27.09;43.56;99381.72;10137847;29;20143;-78
2022/06/24 12:10:50;;;;;;;3.40;1.52;;;;;;;26.82;43.77;99379.72;10137842;29;20048;-77
2022/06/24 12:15:54;;;;;;;5.15;1.70;;;;;;;27.39;41.98;99376.53;10133781;29;20055;-77
2022/06/24 12:21:03;;;;;;;3.30;1.48;;;;;;;28.44;40.70;99392.66;10120567;29;20055;-77
2022/06/24 12:26:18;;;;;;;3.10;1.80;;;;;;;28.48;41.48;99391.03;10120671;29;20067;-77
2022/06/24 12:31:21;;;;;;;3.20;1.33;;;;;;;29.67;37.59;99384.91;10136067;29;20048;-77
2022/06/24 12:36:34;;;;;;;6.93;1.95;;;;;;;29.04;37.95;99378.59;10128510;29;20188;-77
2022/06/24 12:41:45;;;;;;;3.50;2.10;;;;;;;28.35;39.38;99376.84;10135326;29;20084;-77
2022/06/24 12:52:11;;;;;;;2.15;1.40;;;;;;;28.24;39.62;99389.75;10137018;29;20047;-77
2022/06/24 12:57:14;;;;;;;3.58;1.42;;;;;;;26.85;40.31;99386.66;10117239;29;20131;-77
2022/06/24 13:02:17;;;;;;;2.35;1.52;;;;;;;25.87;43.12;99395.34;10136516;29;20610;-77
2022/06/24 13:07:22;;;;;;;3.47;1.50;;;;;;;25.28;44.12;99392.03;10117492;29;21335;-77
2022/06/24 13:12:25;;;;;;;2.97;1.38;;;;;;;24.43;47.98;99434.66;10142625;29;20052;-77
2022/06/24 13:17:28;;;;;;;4.85;2.60;;;;;;;20.92;64.07;99437.97;10123312;29;20116;-77
2022/06/24 13:22:33;;;;;;;8.85;6.82;;;;;;;20.52;68.11;99438.91;10122022;29;20052;-76
2022/06/24 13:27:38;;;;;;;11.50;8.30;;;;;;;19.89;74.78;99461.13;10140083;29;20163;-76
2022/06/24 13:32:41;;;;;;;13.73;10.68;;;;;;;19.62;80.01;99456.66;10138384;29;20060;-76
2022/06/24 13:37:45;;;;;;;17.67;14.88;;;;;;;19.72;82.14;99473.47;10139782;29;20089;-77
2022/06/24 13:42:48;;;;;;;19.08;16.05;;;;;;;20.53;79.32;99476.03;10137478;29;20158;-77
2022/06/24 13:47:51;;;;;;;17.13;14.82;;;;;;;21.70;76.22;99472.53;10137368;29;20052;-77
2022/06/24 13:52:55;;;;;;;16.58;13.40;;;;;;;22.49;70.59;99488.41;10138710;29;20113;-77
2022/06/24 13:57:59;;;;;;;16.27;14.68;;;;;;;22.83;69.46;99486.16;10132534;29;20075;-77
2022/06/24 14:03:01;;;;;;;17.33;13.13;;;;;;;22.54;66.88;99494.03;10119866;29;20421;-77
2022/06/24 14:08:06;;;;;;;14.65;12.40;;;;;;;22.62;66.53;99489.31;10141202;29;20704;-76
2022/06/24 14:13:09;;;;;;;12.65;11.35;;;;;;;21.80;67.23;99498.34;10147187;29;20058;-76
2022/06/24 14:18:13;;;;;;;13.00;11.68;;;;;;;22.17;67.35;99484.00;10146883;29;20660;-77
2022/06/24 14:28:38;;;;;;;14.27;11.10;;;;;;;22.56;66.99;99496.53;10136373;29;20585;-77
2022/06/24 14:33:41;;;;;;;11.90;10.35;;;;;;;23.14;64.27;99506.28;10137588;29;20418;-77
2022/06/24 14:44:06;;;;;;;11.23;9.68;;;;;;;24.68;57.58;99500.31;10153735;29;20052;-78
2022/06/24 14:49:09;;;;;;;9.63;8.52;;;;;;;23.57;60.77;99506.19;10140528;29;20055;-78
2022/06/24 14:54:32;;;;;;;8.90;7.32;;;;;;;27.13;55.51;99471.06;10147913;29;20529;-78
2022/06/24 14:59:35;;;;;;;11.27;8.35;;;;;;;28.90;48.43;99473.06;10150780;29;20506;-78
2022/06/24 15:04:38;;;;;;;9.00;6.93;;;;;;;29.23;46.61;99456.41;10156904;29;20122;-78
2022/06/24 15:09:43;;;;;;;5.38;4.88;;;;;;;28.87;47.14;99442.38;10156165;29;20063;-78
2022/06/24 15:14:46;;;;;;;3.60;3.30;;;;;;;30.21;44.29;99450.00;10152471;29;20573;-78
2022/06/24 15:19:49;;;;;;;4.05;3.42;;;;;;;29.10;44.62;99452.19;10125008;29;20123;-78
2022/06/24 15:24:53;;;;;;;4.20;3.78;;;;;;;28.52;46.23;99446.59;10143741;29;20059;-78
2022/06/24 15:29:56;;;;;;;3.70;3.22;;;;;;;26.93;49.45;99442.16;10138849;29;20516;-77
2022/06/24 15:34:59;;;;;;;4.70;3.80;;;;;;;27.81;47.57;99441.25;10142899;29;20048;-79
2022/06/24 15:40:04;;;;;;;3.78;2.90;;;;;;;28.56;44.47;99452.44;10136154;29;20052;-78
2022/06/24 15:45:08;;;;;;;3.70;3.40;;;;;;;29.10;43.75;99444.75;10151190;29;20074;-78
2022/06/24 15:50:11;;;;;;;5.78;3.97;;;;;;;27.74;45.55;99435.13;10137704;29;20055;-78
2022/06/24 15:55:15;;;;;;;3.47;3.17;;;;;;;28.56;45.47;99427.56;10139835;29;20056;-78
2022/06/24 16:00:18;;;;;;;2.85;2.65;;;;;;;28.28;43.77;99416.59;10139757;29;20060;-78
2022/06/24 16:05:21;;;;;;;3.53;2.20;;;;;;;29.09;43.28;99414.59;10119673;29;20092;-78
2022/06/24 16:10:25;;;;;;;2.95;2.20;;;;;;;28.69;43.34;99410.53;10138068;29;20521;-78
2022/06/24 16:15:28;;;;;;;3.08;2.60;;;;;;;29.03;43.75;99421.19;10148062;29;20055;-78
2022/06/24 16:20:31;;;;;;;2.90;2.70;;;;;;;29.60;41.98;99434.16;10142461;29;20048;-78
2022/06/24 16:30:56;;;;;;;4.60;3.05;;;;;;;26.75;48.54;99442.44;10136791;29;20166;-78
2022/06/24 16:36:00;;;;;;;3.50;3.20;;;;;;;29.73;43.13;99449.38;10135508;29;20063;-78
2022/06/24 16:41:04;;;;;;;3.65;3.30;;;;;;;29.12;43.58;99450.00;10137704;29;20052;-78
2022/06/24 16:46:09;;;;;;;3.15;2.90;;;;;;;30.34;40.89;99441.16;10143359;29;20056;-78
2022/06/24 16:51:15;;;;;;;2.83;2.63;;;;;;;31.94;38.67;99448.59;10146792;29;20102;-78
2022/06/24 16:56:19;;;;;;;2.80;2.55;;;;;;;32.60;37.51;99440.81;10127624;29;20143;-78
2022/06/24 17:01:22;;;;;;;2.70;2.50;;;;;;;33.00;37.11;99452.66;10142155;29;20044;-77
2022/06/24 17:06:26;;;;;;;3.30;3.10;;;;;;;30.40;39.94;99464.13;10139694;29;21275;-77
2022/06/24 17:11:30;;;;;;;3.47;3.17;;;;;;;28.11;44.36;99489.56;10126366;29;20133;-77
2022/06/24 17:16:33;;;;;;;3.10;2.88;;;;;;;26.01;50.17;99500.41;10141869;29;20089;-77
2022/06/24 17:21:36;;;;;;;3.17;2.95;;;;;;;26.38;50.46;99510.97;10141267;29;20067;-77
2022/06/24 17:26:42;;;;;;;3.83;3.33;;;;;;;26.83;49.71;99512.81;10141228;29;20088;-77
2022/06/24 17:31:45;;;;;;;4.75;2.95;;;;;;;26.64;50.18;99521.31;10138662;29;20051;-76
2022/06/24 17:36:48;;;;;;;3.80;3.42;;;;;;;26.00;51.44;99529.81;10137037;29;20518;-77
2022/06/24 17:41:52;;;;;;;4.45;2.97;;;;;;;25.68;52.24;99537.72;10142819;29;20060;-77
2022/06/24 17:46:56;;;;;;;2.97;2.55;;;;;;;25.30;53.48;99535.53;10123985;29;20059;-76
2022/06/24 17:51:59;;;;;;;4.10;3.35;;;;;;;24.96;54.51;99549.88;10141255;29;20092;-77
2022/06/24 17:57:04;;;;;;;3.78;3.47;;;;;;;24.74;55.11;99559.78;10140354;29;20055;-76
2022/06/24 18:02:06;;;;;;;3.90;3.20;;;;;;;23.98;57.22;99558.63;10123661;29;20120;-77
2022/06/24 18:07:09;;;;;;;3.25;3.05;;;;;;;23.97;58.43;99554.19;10120793;29;20478;-77
2022/06/24 18:12:14;;;;;;;3.88;3.45;;;;;;;23.79;58.25;99566.03;10141415;29;20048;-76
2022/06/24 18:17:17;;;;;;;8.32;3.13;;;;;;;23.68;58.98;99562.13;10142282;29;21314;-77
2022/06/24 18:22:20;;;;;;;3.00;2.65;;;;;;;23.62;59.31;99571.28;10140971;29;20052;-76
2022/06/24 18:27:25;;;;;;;2.75;2.55;;;;;;;23.17;59.76;99555.13;10139804;29;20478;-76
2022/06/24 18:32:29;;;;;;;2.80;2.60;;;;;;;23.23;59.80;99567.09;10139595;29;20138;-78
2022/06/24 18:37:31;;;;;;;2.78;2.42;;;;;;;23.24;59.89;99574.25;10134912;29;20063;-77
2022/06/24 18:42:36;;;;;;;2.60;2.33;;;;;;;23.03;58.61;99575.47;10136423;29;20088;-77
2022/06/24 18:47:41;;;;;;;4.30;2.67;;;;;;;23.00;58.71;99585.81;10134730;29;20072;-76
2022/06/24 18:52:44;;;;;;;4.10;3.00;;;;;;;22.96;57.96;99601.03;10136184;29;20048;-76
2022/06/24 18:57:48;;;;;;;2.38;2.25;;;;;;;22.93;58.39;99606.13;10120608;29;20514;-77
2022/06/24 19:02:51;;;;;;;2.92;2.72;;;;;;;22.85;57.33;99598.19;10124447;29;20056;-76
2022/06/24 19:07:59;;;;;;;3.03;2.50;;;;;;;22.95;58.06;99602.09;10128774;29;20522;-77
2022/06/24 19:13:03;;;;;;;2.00;1.90;;;;;;;22.88;58.86;99598.59;10118939;29;20056;-77
2022/06/24 19:18:06;;;;;;;3.05;2.53;;;;;;;22.82;58.56;99604.09;10136984;29;20063;-76
2022/06/24 19:23:09;;;;;;;3.63;2.72;;;;;;;22.65;57.84;99601.91;10114361;29;20087;-77
2022/06/24 19:28:14;;;;;;;3.63;2.25;;;;;;;22.58;57.75;99620.31;10132284;29;20052;-77
2022/06/24 19:33:17;;;;;;;2.85;2.55;;;;;;;22.43;57.28;99619.72;10132395;29;20615;-78
2022/06/24 19:38:20;;;;;;;2.40;2.28;;;;;;;22.15;57.42;99628.31;10118757;29;20044;-78
2022/06/24 19:43:29;;;;;;;2.55;2.28;;;;;;;21.70;58.19;99634.59;10136152;29;20581;-77
2022/06/24 19:48:34;;;;;;;2.17;2.08;;;;;;;21.51;59.25;99625.41;10135100;29;20060;-77
2022/06/24 19:53:37;;;;;;;4.82;2.20;;;;;;;21.43;59.64;99629.19;10136357;29;20047;-77
2022/06/24 19:58:41;;;;;;;2.80;2.60;;;;;;;21.66;59.30;99631.44;10134178;29;20048;-78
2022/06/24 20:09:04;;;;;;;3.45;2.80;;;;;;;21.93;59.01;99630.53;10136229;29;20072;-78
2022/06/24 20:14:11;;;;;;;3.20;3.00;;;;;;;21.96;58.65;99644.59;10117124;29;20056;-77
2022/06/24 20:19:14;;;;;;;5.95;3.38;;;;;;;21.87;59.42;99652.22;10131404;29;20056;-77
2022/06/24 20:24:18;;;;;;;3.97;3.15;;;;;;;21.81;59.46;99653.09;10117281;29;20142;-77
2022/06/24 20:29:23;;;;;;;12.43;3.70;;;;;;;21.65;59.35;99659.81;10114575;29;20096;-78
2022/06/24 20:34:26;;;;;;;5.18;3.70;;;;;;;21.66;60.00;99661.50;10135282;29;20056;-77
2022/06/24 20:39:29;;;;;;;4.20;3.63;;;;;;;21.67;59.80;99657.72;10131597;29;20063;-77
2022/06/24 20:44:33;;;;;;;3.67;3.38;;;;;;;21.57;60.03;99659.22;10132420;29;20063;-77
2022/06/24 20:49:36;;;;;;;3.88;3.60;;;;;;;21.56;59.99;99661.13;10131599;29;20048;-77
2022/06/24 20:54:39;;;;;;;4.35;3.65;;;;;;;21.38;59.29;99659.03;10136213;29;21202;-76
2022/06/24 20:59:43;;;;;;;6.95;3.38;;;;;;;21.00;60.25;99662.41;10141674;29;20048;-78
2022/06/24 21:04:46;;;;;;;3.20;2.90;;;;;;;20.70;61.52;99666.59;10132887;29;20518;-78
2022/06/24 21:09:49;;;;;;;5.25;3.15;;;;;;;20.67;61.58;99667.84;10130277;29;20546;-77
2022/06/24 21:14:53;;;;;;;3.78;3.30;;;;;;;20.64;61.51;99679.19;10116269;29;20425;-76
2022/06/24 21:19:56;;;;;;;4.13;3.70;;;;;;;20.62;61.55;99675.81;10141079;29;20052;-78
2022/06/24 21:24:59;;;;;;;3.90;3.60;;;;;;;20.83;61.73;99679.41;10151897;29;20055;-78
2022/06/24 21:30:05;;;;;;;5.30;4.80;;;;;;;20.83;61.49;99687.59;10135388;29;20067;-78
2022/06/24 21:35:08;;;;;;;7.07;4.90;;;;;;;20.77;62.00;99703.75;10153250;29;21064;-79
2022/06/24 21:40:12;;;;;;;6.28;4.20;;;;;;;20.75;61.27;99707.75;10135558;29;20624;-76
2022/06/24 21:45:16;;;;;;;6.10;4.63;;;;;;;20.85;60.40;99721.00;10134691;29;20124;-76
2022/06/24 21:50:19;;;;;;;5.32;4.32;;;;;;;20.80;60.49;99724.34;10133399;29;20058;-77
2022/06/24 21:55:22;;;;;;;6.85;5.15;;;;;;;20.66;61.30;99730.81;10153288;29;20542;-79
2022/06/24 22:00:27;;;;;;;6.07;4.50;;;;;;;20.55;60.75;99740.44;10155881;29;20663;-78
2022/06/24 22:05:29;;;;;;;5.30;4.80;;;;;;;20.44;60.63;99733.69;10144161;29;20048;-77
2022/06/24 22:10:33;;;;;;;6.20;4.90;;;;;;;20.38;61.17;99734.53;10152246;29;21182;-80
2022/06/24 22:15:37;;;;;;;7.35;4.78;;;;;;;20.32;61.06;99738.03;10150888;29;20044;-78
2022/06/24 22:20:40;;;;;;;6.55;5.82;;;;;;;20.26;61.99;99745.13;10133630;29;20063;-78
2022/06/24 22:25:43;;;;;;;8.50;6.65;;;;;;;20.09;62.58;99733.72;10130171;29;20060;-78
2022/06/24 22:30:49;;;;;;;10.60;7.22;;;;;;;19.93;63.55;99744.97;10147512;29;20052;-78
2022/06/24 22:35:52;;;;;;;7.78;7.05;;;;;;;19.72;64.86;99747.75;10139654;29;20506;-79
2022/06/24 22:40:55;;;;;;;10.50;8.68;;;;;;;19.67;65.40;99756.56;10137431;29;20044;-78
2022/06/24 22:45:59;;;;;;;10.15;8.38;;;;;;;19.74;65.70;99764.75;10139089;29;20056;-78
2022/06/24 22:51:07;;;;;;;11.68;8.70;;;;;;;19.80;65.96;99762.09;10099812;29;20674;-78
2022/06/24 22:56:10;;;;;;;12.13;9.85;;;;;;;19.87;66.24;99767.56;10144176;29;20048;-78
2022/06/24 23:01:14;;;;;;;11.13;10.00;;;;;;;19.89;66.07;99773.66;10138849;29;20083;-76
2022/06/24 23:06:17;;;;;;;11.18;9.77;;;;;;;19.93;65.70;99764.03;10137321;29;20052;-76
2022/06/24 23:11:20;;;;;;;10.27;9.23;;;;;;;19.96;65.35;99768.25;10116238;29;20390;-78
2022/06/24 23:16:24;;;;;;;10.23;9.18;;;;;;;20.00;65.38;99766.81;10136069;29;20066;-76
2022/06/24 23:21:27;;;;;;;10.75;8.75;;;;;;;20.01;65.12;99752.13;10137223;29;20052;-77
2022/06/24 23:26:30;;;;;;;14.52;9.68;;;;;;;19.80;65.70;99755.78;10136733;29;20573;-79
2022/06/24 23:31:37;;;;;;;11.93;9.05;;;;;;;19.36;67.50;99748.72;10097765;29;20084;-77
2022/06/24 23:36:40;;;;;;;9.70;8.80;;;;;;;19.55;66.93;99741.75;10130944;29;20116;-78
2022/06/24 23:41:43;;;;;;;12.55;10.63;;;;;;;19.59;66.78;99752.09;10136513;29;20160;-79
2022/06/24 23:46:47;;;;;;;10.82;9.73;;;;;;;19.65;66.55;99750.44;10135543;29;20092;-77
2022/06/24 23:51:50;;;;;;;11.30;9.93;;;;;;;19.61;66.36;99758.19;10118641;29;21176;-77
2022/06/24 23:56:53;;;;;;;12.43;9.75;;;;;;;19.60;66.32;99755.66;10119072;29;20079;-79
